Time;durP1;ratioP1;P1;durP2;ratioP2;P2;SDS_P1;SDS_P2;PMS_P1;PMS_P2;Temp;Humidity;BMP_temperature;BMP_pressure;BME280_temperature;BME280_humidity;BME280_pressure;Samples;Min_cycle;Max_cycle;Signal;HPM_P1;HPM_P2
2021/10/18 04:30:44;;;;;;;39.03;19.27;;;7.20;99.90;;;;;;5949178;23;20396;-74
2021/10/18 04:33:10;;;;;;;40.23;17.57;;;7.20;99.90;;;;;;4966506;28;20449;-76
2021/10/18 04:35:36;;;;;;;38.53;18.40;;;7.20;99.90;;;;;;4971227;28;20411;-74
2021/10/18 04:38:02;;;;;;;40.80;19.17;;;7.20;99.90;;;;;;4971125;28;20416;-76
2021/10/18 04:40:28;;;;;;;42.77;18.60;;;7.20;99.90;;;;;;4986717;28;20467;-75
2021/10/18 04:42:53;;;;;;;45.53;19.77;;;7.30;99.90;;;;;;4971211;28;20447;-74
2021/10/18 04:45:19;;;;;;;39.53;19.37;;;7.20;99.90;;;;;;4971039;28;20178;-74
2021/10/18 04:47:46;;;;;;;47.63;20.20;;;7.20;99.90;;;;;;4970994;28;20255;-75
2021/10/18 04:50:12;;;;;;;43.03;19.10;;;7.30;99.90;;;;;;4971592;28;20569;-76
2021/10/18 04:52:37;;;;;;;41.50;18.73;;;7.30;99.90;;;;;;4971012;28;20442;-75
2021/10/18 04:55:03;;;;;;;41.03;19.40;;;7.30;99.90;;;;;;4971610;28;20178;-75
2021/10/18 04:57:29;;;;;;;42.83;21.23;;;7.30;99.90;;;;;;4969356;28;20209;-76
2021/10/18 04:59:54;;;;;;;45.20;19.57;;;7.30;99.90;;;;;;4971432;28;20189;-74
2021/10/18 05:02:20;;;;;;;48.73;19.43;;;7.30;99.90;;;;;;4970141;28;20212;-76
2021/10/18 05:04:45;;;;;;;39.63;19.00;;;7.40;99.90;;;;;;4971539;28;20206;-76
2021/10/18 05:07:11;;;;;;;45.57;20.57;;;7.30;99.90;;;;;;4971202;28;20500;-76
2021/10/18 05:09:36;;;;;;;41.93;20.73;;;7.40;99.90;;;;;;4970718;28;20187;-75
2021/10/18 05:12:03;;;;;;;47.10;19.73;;;7.40;99.90;;;;;;4969660;28;20206;-76
2021/10/18 05:14:29;;;;;;;42.80;20.83;;;7.40;99.90;;;;;;4970102;28;20277;-76
2021/10/18 05:16:55;;;;;;;40.33;19.33;;;7.50;99.90;;;;;;4974816;28;20422;-73
2021/10/18 05:19:22;;;;;;;41.00;19.40;;;7.50;99.90;;;;;;4975187;28;20843;-75
2021/10/18 05:21:48;;;;;;;43.87;20.40;;;7.50;99.90;;;;;;4975121;28;20870;-75
2021/10/18 05:24:14;;;;;;;43.23;19.80;;;7.50;99.90;;;;;;4974737;28;20521;-75
2021/10/18 05:26:40;;;;;;;41.03;18.50;;;7.50;99.90;;;;;;4975010;28;20931;-76
2021/10/18 05:29:06;;;;;;;39.30;19.10;;;7.50;99.90;;;;;;4968503;28;20939;-75
2021/10/18 05:31:32;;;;;;;44.37;20.07;;;7.50;99.90;;;;;;4974345;28;20484;-75
2021/10/18 05:33:57;;;;;;;38.80;18.77;;;7.50;99.90;;;;;;4975073;28;20202;-75
2021/10/18 05:36:23;;;;;;;42.70;19.07;;;7.50;99.90;;;;;;4974891;28;20186;-75
2021/10/18 05:38:48;;;;;;;46.03;18.63;;;7.40;99.90;;;;;;4973782;28;20182;-76
2021/10/18 05:41:15;;;;;;;47.47;18.83;;;7.40;99.90;;;;;;4974659;28;20580;-75
2021/10/18 05:43:41;;;;;;;42.17;18.23;;;7.50;99.90;;;;;;4974586;28;20414;-74
2021/10/18 05:46:06;;;;;;;44.83;18.63;;;7.40;99.90;;;;;;4974981;28;20225;-75
2021/10/18 05:48:32;;;;;;;35.83;18.37;;;7.50;99.90;;;;;;4974724;28;20597;-78
2021/10/18 05:50:58;;;;;;;46.50;19.50;;;7.50;99.90;;;;;;4975220;28;20225;-77
2021/10/18 05:53:24;;;;;;;35.40;17.73;;;7.50;99.90;;;;;;4975406;28;20414;-78
2021/10/18 05:55:49;;;;;;;41.17;18.57;;;7.50;99.90;;;;;;4974226;28;20658;-78
2021/10/18 05:58:15;;;;;;;40.03;16.80;;;7.50;99.90;;;;;;4974467;28;20175;-75
2021/10/18 06:00:44;;;;;;;41.97;18.63;;;7.50;99.90;;;;;;4975544;28;20187;-78
2021/10/18 06:03:10;;;;;;;41.87;19.07;;;7.50;99.90;;;;;;4974944;28;20211;-78
2021/10/18 06:05:42;;;;;;;37.57;18.30;;;7.60;99.90;;;;;;4975482;28;20765;-76
2021/10/18 06:08:08;;;;;;;37.10;19.30;;;7.60;99.90;;;;;;4974876;28;20414;-78
2021/10/18 06:10:35;;;;;;;34.70;17.73;;;7.60;99.90;;;;;;4975038;28;20462;-77
2021/10/18 06:13:01;;;;;;;36.80;18.00;;;7.70;99.90;;;;;;4975742;28;20965;-77
2021/10/18 06:15:26;;;;;;;40.17;19.47;;;7.70;99.90;;;;;;4974703;28;20464;-77
2021/10/18 06:17:52;;;;;;;39.87;20.20;;;7.70;99.90;;;;;;4974425;28;20439;-77
2021/10/18 06:20:19;;;;;;;40.80;19.60;;;7.70;99.90;;;;;;4974798;28;20654;-77
2021/10/18 06:22:46;;;;;;;39.03;20.97;;;7.80;99.90;;;;;;4964174;23;20228;-75
2021/10/18 06:25:11;;;;;;;39.90;18.83;;;7.80;99.90;;;;;;4955019;28;21180;-75
2021/10/18 06:27:37;;;;;;;32.20;18.10;;;7.90;99.90;;;;;;4956060;29;20408;-75
2021/10/18 06:30:04;;;;;;;35.70;19.00;;;7.90;99.90;;;;;;4956001;29;20208;-75
2021/10/18 06:32:29;;;;;;;37.50;17.90;;;8.00;99.90;;;;;;4955843;28;20207;-75
2021/10/18 06:34:55;;;;;;;43.43;19.30;;;8.00;99.90;;;;;;4956191;29;20916;-75
2021/10/18 06:37:20;;;;;;;40.00;19.80;;;8.00;99.90;;;;;;4956012;29;20565;-76
2021/10/18 06:39:46;;;;;;;39.53;21.70;;;8.10;99.90;;;;;;4956392;29;20180;-75
2021/10/18 06:42:11;;;;;;;34.07;17.40;;;8.10;99.90;;;;;;4955638;28;20210;-75
2021/10/18 06:44:37;;;;;;;43.57;20.33;;;8.10;99.90;;;;;;4955999;29;20183;-75
2021/10/18 06:47:03;;;;;;;34.93;19.47;;;8.10;99.90;;;;;;4954561;29;20191;-75
2021/10/18 06:49:29;;;;;;;41.70;20.63;;;8.20;99.90;;;;;;4955728;29;20187;-75
2021/10/18 06:51:56;;;;;;;41.27;19.37;;;8.20;99.90;;;;;;4955559;28;20223;-75
2021/10/18 06:54:22;;;;;;;39.43;19.27;;;8.20;99.90;;;;;;4955693;28;20180;-75
2021/10/18 06:56:48;;;;;;;35.77;19.03;;;8.30;99.90;;;;;;4955752;28;20466;-75
2021/10/18 06:59:15;;;;;;;31.90;19.07;;;8.30;99.90;;;;;;4955204;28;20423;-76
2021/10/18 07:01:41;;;;;;;31.97;18.27;;;8.40;99.90;;;;;;4955335;28;20590;-76
2021/10/18 07:04:07;;;;;;;49.60;20.57;;;8.40;99.90;;;;;;4955299;28;20453;-76
2021/10/18 07:06:34;;;;;;;39.83;18.43;;;8.40;99.90;;;;;;4955388;28;20409;-76
2021/10/18 07:09:01;;;;;;;42.00;20.50;;;8.40;99.90;;;;;;4955086;28;20730;-76
2021/10/18 07:11:26;;;;;;;40.00;19.43;;;8.50;99.90;;;;;;4953802;28;20452;-76
2021/10/18 07:13:53;;;;;;;38.83;18.87;;;8.50;99.90;;;;;;4955117;28;20417;-76
2021/10/18 07:16:18;;;;;;;38.57;20.43;;;8.60;99.90;;;;;;4955094;28;20260;-76
2021/10/18 07:18:44;;;;;;;44.10;21.23;;;8.60;99.90;;;;;;4954968;29;20425;-76
2021/10/18 07:21:11;;;;;;;40.40;20.60;;;8.70;99.90;;;;;;4954799;28;20210;-75
2021/10/18 07:23:37;;;;;;;43.77;18.53;;;8.70;99.90;;;;;;4955102;28;20813;-76
2021/10/18 07:26:04;;;;;;;41.47;20.23;;;8.80;99.90;;;;;;4954998;28;20428;-76
2021/10/18 07:28:30;;;;;;;37.20;18.57;;;8.90;99.90;;;;;;4954686;28;20800;-76
2021/10/18 07:30:58;;;;;;;46.10;21.87;;;8.90;99.90;;;;;;4954548;28;20460;-76
2021/10/18 07:33:24;;;;;;;41.07;19.30;;;9.00;99.90;;;;;;4954644;28;20207;-77
2021/10/18 07:35:50;;;;;;;45.27;20.70;;;9.00;99.90;;;;;;4954765;28;20415;-76
2021/10/18 07:38:16;;;;;;;39.80;20.07;;;9.00;99.90;;;;;;4954503;28;21072;-75
2021/10/18 07:40:42;;;;;;;43.87;21.17;;;9.00;99.90;;;;;;4954725;28;20433;-76
2021/10/18 07:43:10;;;;;;;42.83;17.53;;;9.00;99.90;;;;;;4954670;28;20419;-76
2021/10/18 07:45:36;;;;;;;40.90;20.83;;;9.00;99.90;;;;;;4954585;28;20658;-76
2021/10/18 07:48:01;;;;;;;41.77;20.50;;;9.10;99.90;;;;;;4954569;29;20508;-76
2021/10/18 07:50:27;;;;;;;34.83;19.57;;;9.10;99.90;;;;;;4953084;28;20215;-76
2021/10/18 07:52:53;;;;;;;35.90;19.80;;;9.10;99.90;;;;;;4954692;28;20257;-76
2021/10/18 07:55:19;;;;;;;35.93;20.27;;;9.20;99.90;;;;;;4954350;28;20182;-76
2021/10/18 07:57:47;;;;;;;37.37;20.73;;;9.20;99.90;;;;;;4953192;29;20183;-76
2021/10/18 08:00:13;;;;;;;35.80;18.93;;;9.30;99.90;;;;;;4952910;28;20425;-76
2021/10/18 08:02:39;;;;;;;38.70;19.73;;;9.30;99.90;;;;;;4954340;28;20842;-76
2021/10/18 08:05:05;;;;;;;30.50;17.40;;;9.30;99.90;;;;;;4954571;28;20443;-76
2021/10/18 08:07:36;;;;;;;39.43;19.30;;;9.30;99.90;;;;;;4954133;28;20420;-76
2021/10/18 08:10:05;;;;;;;33.97;17.70;;;9.40;99.90;;;;;;4952864;29;20516;-77
2021/10/18 08:12:31;;;;;;;28.07;16.50;;;9.40;99.90;;;;;;4954028;28;20976;-77
2021/10/18 08:14:58;;;;;;;29.07;16.77;;;9.50;99.90;;;;;;4954194;28;20418;-76
2021/10/18 08:17:24;;;;;;;32.17;17.70;;;9.50;99.90;;;;;;4953833;28;20445;-76
2021/10/18 08:19:49;;;;;;;29.47;17.83;;;9.50;99.90;;;;;;4954182;28;20417;-76
2021/10/18 08:22:15;;;;;;;34.57;18.57;;;9.50;99.90;;;;;;4952526;28;20210;-76
2021/10/18 08:24:41;;;;;;;32.70;17.07;;;9.60;99.90;;;;;;4953987;28;20453;-76
2021/10/18 08:27:06;;;;;;;32.80;19.20;;;9.60;99.90;;;;;;4953874;29;20504;-76
2021/10/18 08:29:32;;;;;;;25.87;17.10;;;9.60;99.90;;;;;;4953915;29;20180;-75
2021/10/18 08:31:58;;;;;;;30.30;17.30;;;9.60;99.90;;;;;;4953768;28;20211;-76
2021/10/18 08:34:23;;;;;;;31.03;16.40;;;9.70;99.90;;;;;;4953602;29;20239;-76
2021/10/18 08:36:49;;;;;;;28.37;15.80;;;9.60;99.90;;;;;;4954019;29;20181;-75
2021/10/18 08:42:08;;;;;;;29.13;16.77;;;9.60;99.90;;;;;;4953833;28;20211;-75
2021/10/18 08:44:34;;;;;;;32.40;17.50;;;9.60;99.90;;;;;;4952444;29;20487;-75
2021/10/18 08:47:02;;;;;;;29.00;16.77;;;9.70;99.90;;;;;;4953667;28;20432;-76
2021/10/18 08:49:28;;;;;;;29.00;16.90;;;9.70;99.90;;;;;;4952946;28;20420;-76
2021/10/18 08:51:54;;;;;;;28.70;17.53;;;9.70;99.90;;;;;;4953570;28;20837;-76
2021/10/18 08:54:19;;;;;;;30.50;18.07;;;9.70;99.90;;;;;;4953538;29;20415;-76
2021/10/18 08:56:45;;;;;;;33.70;16.97;;;9.70;99.90;;;;;;4953815;29;20259;-76
2021/10/18 08:59:11;;;;;;;29.77;17.30;;;9.80;99.90;;;;;;4953360;29;20253;-76
2021/10/18 09:01:41;;;;;;;31.80;18.57;;;9.80;99.90;;;;;;4953540;28;20210;-76
2021/10/18 09:04:27;;;;;;;29.00;17.10;;;9.90;99.90;;;;;;4953511;28;20510;-77
2021/10/18 09:06:57;;;;;;;31.37;18.23;;;9.90;99.90;;;;;;4952455;29;20974;-76
2021/10/18 09:09:25;;;;;;;34.00;18.20;;;9.90;99.90;;;;;;4953258;28;21047;-76
2021/10/18 09:11:53;;;;;;;33.43;19.13;;;10.00;99.90;;;;;;4953309;28;20985;-76
2021/10/18 09:14:18;;;;;;;24.30;16.10;;;10.00;99.90;;;;;;4953426;28;20477;-76
2021/10/18 09:16:45;;;;;;;26.53;17.40;;;9.90;99.90;;;;;;4954125;28;20422;-76
2021/10/18 09:19:25;;;;;;;37.40;18.40;;;9.90;99.90;;;;;;4953447;28;20283;-76
2021/10/18 09:21:54;;;;;;;36.20;16.57;;;9.90;99.90;;;;;;4952063;28;20457;-76
2021/10/18 09:24:38;;;;;;;28.93;18.00;;;9.80;99.90;;;;;;4953329;28;20425;-76
2021/10/18 09:27:16;;;;;;;28.77;18.27;;;10.00;99.90;;;;;;4953942;28;20414;-76
2021/10/18 09:29:47;;;;;;;27.20;16.27;;;10.00;99.90;;;;;;4953236;28;20417;-76
2021/10/18 09:32:18;;;;;;;33.77;18.50;;;10.10;99.90;;;;;;4953249;28;20434;-76
2021/10/18 09:34:44;;;;;;;33.53;19.20;;;10.10;99.90;;;;;;4953162;29;20471;-76
2021/10/18 09:37:14;;;;;;;32.57;18.70;;;10.20;99.90;;;;;;4953262;29;20413;-76
2021/10/18 09:39:44;;;;;;;29.20;19.13;;;10.20;99.90;;;;;;4953289;28;20173;-77
2021/10/18 09:42:16;;;;;;;36.30;20.00;;;10.10;99.90;;;;;;4953071;28;20793;-76
2021/10/18 09:45:26;;;;;;;33.10;18.97;;;10.10;99.90;;;;;;4952062;29;20416;-76
2021/10/18 10:54:09;;;;;;;29.13;17.23;;;12.20;99.90;;;;;;4955384;29;20412;-77
2021/10/18 10:56:43;;;;;;;25.80;17.40;;;12.50;99.90;;;;;;4955541;28;20418;-76
2021/10/18 10:59:25;;;;;;;28.93;18.37;;;12.80;99.90;;;;;;4955305;28;20408;-76
2021/10/18 11:01:59;;;;;;;27.73;17.70;;;13.10;99.90;;;;;;4954234;28;20451;-76
2021/10/18 11:04:31;;;;;;;28.20;17.67;;;13.60;99.90;;;;;;4953979;29;20420;-76
2021/10/18 11:07:02;;;;;;;27.70;18.50;;;14.10;99.90;;;;;;4955513;28;20419;-76
2021/10/18 11:09:40;;;;;;;26.27;17.60;;;14.40;99.90;;;;;;4953783;29;20443;-76
2021/10/18 11:12:18;;;;;;;29.33;19.60;;;14.60;99.90;;;;;;4954600;28;20836;-76
2021/10/18 11:14:59;;;;;;;23.47;17.37;;;14.70;99.90;;;;;;4955348;28;20928;-76
2021/10/18 11:17:27;;;;;;;25.50;16.53;;;14.70;99.90;;;;;;4955154;29;20788;-76
2021/10/18 11:19:58;;;;;;;25.70;16.80;;;14.80;99.90;;;;;;4955173;28;20420;-76
2021/10/18 11:22:26;;;;;;;22.27;16.30;;;14.90;99.90;;;;;;4954773;28;20523;-76
2021/10/18 11:24:52;;;;;;;22.67;16.30;;;14.90;99.90;;;;;;4955028;28;20788;-76
2021/10/18 11:27:34;;;;;;;24.50;16.43;;;15.10;99.90;;;;;;4955172;29;20408;-76
2021/10/18 11:30:08;;;;;;;30.27;17.13;;;14.90;99.90;;;;;;4954999;28;20176;-76
2021/10/18 11:32:35;;;;;;;24.53;16.00;;;14.60;99.90;;;;;;4953470;28;20507;-76
2021/10/18 11:35:06;;;;;;;25.77;18.20;;;14.40;99.90;;;;;;4954999;28;20504;-76
2021/10/18 11:37:51;;;;;;;24.43;16.90;;;14.40;99.90;;;;;;4954623;29;20826;-76
2021/10/18 11:40:20;;;;;;;25.17;16.70;;;14.50;99.90;;;;;;4954582;28;20511;-76
2021/10/18 11:42:55;;;;;;;26.47;17.90;;;14.30;99.90;;;;;;4954577;28;20564;-76
2021/10/18 11:45:23;;;;;;;30.37;18.80;;;14.60;99.90;;;;;;4954602;28;20408;-77
2021/10/18 11:47:50;;;;;;;26.63;17.30;;;14.60;99.90;;;;;;4954483;28;20428;-76
2021/10/18 11:50:17;;;;;;;28.43;18.97;;;14.50;99.90;;;;;;4954371;28;20455;-76
2021/10/18 11:52:49;;;;;;;25.77;17.20;;;14.40;99.90;;;;;;4954450;28;20445;-77
2021/10/18 11:55:43;;;;;;;27.73;17.87;;;14.40;99.90;;;;;;4954499;28;20980;-77
2021/10/18 11:58:10;;;;;;;22.87;17.20;;;14.50;99.90;;;;;;4954538;28;20932;-77
2021/10/18 12:00:41;;;;;;;29.23;16.67;;;14.40;99.90;;;;;;4953067;28;20458;-77
2021/10/18 12:03:17;;;;;;;23.23;16.20;;;14.40;99.90;;;;;;4954408;28;20459;-77
2021/10/18 12:05:45;;;;;;;27.40;18.20;;;14.40;99.90;;;;;;4954390;28;20820;-76
2021/10/18 12:08:13;;;;;;;24.87;16.40;;;14.30;99.90;;;;;;4954227;28;20412;-77
2021/10/18 12:10:40;;;;;;;27.93;17.90;;;14.40;99.90;;;;;;4954348;28;20468;-77
2021/10/18 12:13:29;;;;;;;26.40;17.13;;;14.40;99.90;;;;;;4954106;28;20515;-77
2021/10/18 12:16:03;;;;;;;31.07;18.57;;;14.30;99.90;;;;;;4954328;28;20822;-77
2021/10/18 12:18:30;;;;;;;27.10;17.80;;;14.30;99.90;;;;;;4952635;29;20420;-77
2021/10/18 12:21:03;;;;;;;28.90;17.47;;;14.30;99.90;;;;;;4953982;28;20463;-76
2021/10/18 12:23:34;;;;;;;22.20;16.30;;;14.30;99.90;;;;;;4952931;28;20431;-77
2021/10/18 12:26:04;;;;;;;26.87;17.83;;;14.10;99.90;;;;;;4954205;28;20424;-76
2021/10/18 12:28:43;;;;;;;28.30;17.80;;;14.10;99.90;;;;;;4952725;29;20435;-77
2021/10/18 12:31:26;;;;;;;22.83;16.30;;;14.00;99.90;;;;;;4954003;28;20520;-77
2021/10/18 12:34:09;;;;;;;24.23;16.30;;;14.00;99.90;;;;;;4954147;29;20412;-76
2021/10/18 12:37:00;;;;;;;24.60;17.17;;;14.00;99.90;;;;;;4953883;29;20436;-77
2021/10/18 12:39:43;;;;;;;23.57;16.50;;;14.00;99.90;;;;;;4953692;28;20409;-77
2021/10/18 12:42:14;;;;;;;25.97;18.47;;;13.80;99.90;;;;;;4953640;28;20825;-77
2021/10/18 12:44:45;;;;;;;22.30;17.47;;;13.70;99.90;;;;;;4953792;28;20932;-77
2021/10/18 12:47:26;;;;;;;27.40;16.50;;;13.70;99.90;;;;;;4953695;28;20917;-77
2021/10/18 12:50:04;;;;;;;24.93;16.90;;;13.80;99.90;;;;;;4953628;28;20412;-77
2021/10/18 12:52:32;;;;;;;21.27;15.47;;;13.70;99.90;;;;;;4953534;28;20443;-76
2021/10/18 12:54:59;;;;;;;22.20;16.63;;;13.70;99.90;;;;;;4952460;29;20428;-77
2021/10/18 12:57:27;;;;;;;21.40;16.07;;;13.90;99.90;;;;;;4953517;28;20507;-77
2021/10/18 13:00:04;;;;;;;23.67;15.70;;;13.90;99.90;;;;;;4952265;29;20419;-77
2021/10/18 13:02:31;;;;;;;25.93;17.07;;;13.90;99.90;;;;;;4953532;28;20438;-76
2021/10/18 13:05:14;;;;;;;30.07;16.77;;;14.00;99.90;;;;;;4953753;28;20415;-77
2021/10/18 13:07:54;;;;;;;23.33;16.03;;;14.00;99.90;;;;;;4953775;28;20413;-77
2021/10/18 13:10:21;;;;;;;23.20;15.80;;;13.90;99.90;;;;;;4953489;28;20457;-77
2021/10/18 13:12:48;;;;;;;23.27;16.23;;;14.00;99.90;;;;;;4953672;28;20465;-77
2021/10/18 13:15:16;;;;;;;17.57;14.57;;;14.10;99.90;;;;;;4953510;28;20420;-77
2021/10/18 13:17:43;;;;;;;23.63;16.17;;;14.10;99.90;;;;;;4953996;28;20783;-77
2021/10/18 13:20:11;;;;;;;20.10;15.30;;;14.10;99.90;;;;;;4955105;28;20956;-77
2021/10/18 13:22:38;;;;;;;22.03;15.40;;;14.10;99.90;;;;;;4954849;28;20434;-79
2021/10/18 13:25:05;;;;;;;28.83;15.73;;;14.10;99.90;;;;;;4954354;29;20483;-79
2021/10/18 13:27:31;;;;;;;26.20;15.50;;;14.10;99.90;;;;;;4955447;28;20437;-79
2021/10/18 13:29:57;;;;;;;17.90;14.40;;;14.20;99.90;;;;;;4954629;28;20416;-79
2021/10/18 13:32:23;;;;;;;21.17;15.90;;;14.20;99.90;;;;;;4956186;28;20448;-79
2021/10/18 13:34:49;;;;;;;21.77;14.77;;;14.30;99.90;;;;;;4957905;28;20412;-79
2021/10/18 13:37:15;;;;;;;22.00;15.57;;;14.20;99.90;;;;;;4958850;28;20174;-79
2021/10/18 13:39:41;;;;;;;23.47;15.30;;;14.20;99.90;;;;;;4958593;29;20893;-79
2021/10/18 13:42:07;;;;;;;26.40;16.60;;;14.10;99.90;;;;;;4958218;28;20199;-79
2021/10/18 13:44:35;;;;;;;21.87;14.90;;;14.20;99.90;;;;;;4958859;28;20417;-80
2021/10/18 13:47:01;;;;;;;21.83;15.43;;;14.10;99.90;;;;;;4959177;28;20823;-79
2021/10/18 13:49:27;;;;;;;25.33;15.07;;;14.10;99.90;;;;;;4958284;28;20416;-79
2021/10/18 13:51:53;;;;;;;21.90;16.03;;;14.20;99.90;;;;;;4959086;28;20208;-79
2021/10/18 13:54:19;;;;;;;19.07;14.27;;;14.20;99.90;;;;;;4957318;28;20435;-79
2021/10/18 13:56:44;;;;;;;21.77;14.93;;;14.20;99.90;;;;;;4957905;29;20173;-79
2021/10/18 13:59:10;;;;;;;25.87;16.20;;;14.20;99.90;;;;;;4957910;29;20571;-79
2021/10/18 14:01:36;;;;;;;25.57;16.77;;;14.20;99.90;;;;;;4957478;28;20264;-79
2021/10/18 14:04:03;;;;;;;27.10;16.33;;;14.30;99.90;;;;;;4957577;29;20176;-79
2021/10/18 14:06:28;;;;;;;22.50;16.07;;;14.40;99.90;;;;;;4955997;29;20185;-79
2021/10/18 14:08:54;;;;;;;22.20;15.67;;;14.50;99.90;;;;;;4956226;29;20438;-79
2021/10/18 14:11:20;;;;;;;24.27;16.07;;;14.50;99.90;;;;;;4956670;28;20267;-78
2021/10/18 14:13:45;;;;;;;25.43;16.27;;;14.40;99.90;;;;;;4957800;29;20183;-79
2021/10/18 14:16:11;;;;;;;20.73;14.83;;;14.50;99.90;;;;;;4957424;29;20265;-79
2021/10/18 14:18:37;;;;;;;26.23;15.83;;;14.50;99.90;;;;;;4956899;28;20181;-79
2021/10/18 14:21:05;;;;;;;22.93;15.37;;;14.50;99.90;;;;;;4957804;28;20509;-79
2021/10/18 14:23:32;;;;;;;22.47;14.33;;;14.50;99.90;;;;;;4957452;28;20417;-79
2021/10/18 14:25:59;;;;;;;22.53;16.17;;;14.50;99.90;;;;;;4957046;29;20463;-79
2021/10/18 14:28:25;;;;;;;22.53;15.90;;;14.50;99.90;;;;;;4957669;28;20428;-79
2021/10/18 14:30:50;;;;;;;22.30;16.40;;;14.40;99.90;;;;;;4957349;28;20463;-79
2021/10/18 14:33:16;;;;;;;25.00;15.40;;;14.30;99.90;;;;;;4957069;29;20432;-79
2021/10/18 14:35:42;;;;;;;24.27;13.73;;;14.30;99.90;;;;;;4957003;29;20174;-79
2021/10/18 14:38:08;;;;;;;26.57;15.53;;;14.20;99.90;;;;;;4957088;28;20184;-79
2021/10/18 14:40:34;;;;;;;21.20;14.43;;;14.20;99.90;;;;;;4956613;28;20223;-79
2021/10/18 14:42:59;;;;;;;25.90;15.43;;;14.20;99.90;;;;;;4955644;29;20192;-79
2021/10/18 14:45:25;;;;;;;20.53;14.47;;;14.10;99.90;;;;;;4955259;28;20416;-79
2021/10/18 14:47:50;;;;;;;26.40;14.47;;;14.00;99.90;;;;;;4954670;29;20189;-78
2021/10/18 14:50:16;;;;;;;18.87;15.93;;;14.00;99.90;;;;;;4955488;28;20466;-78
2021/10/18 14:52:42;;;;;;;20.77;13.40;;;13.90;99.90;;;;;;4955689;29;20252;-78
2021/10/18 14:55:09;;;;;;;17.50;13.47;;;13.70;99.90;;;;;;4955652;29;20179;-78
2021/10/18 14:57:35;;;;;;;25.53;15.10;;;13.70;99.90;;;;;;4955637;28;20176;-78
2021/10/18 15:00:01;;;;;;;23.97;14.77;;;13.60;99.90;;;;;;4955621;29;20507;-78
2021/10/18 15:02:28;;;;;;;23.40;14.30;;;13.60;99.90;;;;;;4955571;28;20197;-78
2021/10/18 15:04:55;;;;;;;27.47;15.97;;;13.60;99.90;;;;;;4955459;28;20420;-78
2021/10/18 15:07:24;;;;;;;22.80;15.73;;;13.60;99.90;;;;;;4955233;28;20447;-78
2021/10/18 15:09:50;;;;;;;21.17;15.40;;;13.50;99.90;;;;;;4955154;28;20413;-77
2021/10/18 15:12:17;;;;;;;23.00;15.33;;;13.50;99.90;;;;;;4955007;28;20526;-77
2021/10/18 15:14:43;;;;;;;21.70;14.20;;;13.50;99.90;;;;;;4954019;29;20176;-77
2021/10/18 15:17:09;;;;;;;20.07;14.30;;;13.50;99.90;;;;;;4953954;29;20948;-77
2021/10/18 15:19:35;;;;;;;24.93;16.10;;;13.50;99.90;;;;;;4955423;29;20420;-77
2021/10/18 15:22:10;;;;;;;22.63;15.70;;;13.50;99.90;;;;;;4956395;28;20295;-77
2021/10/18 15:24:36;;;;;;;23.43;15.50;;;13.40;99.90;;;;;;4956039;28;20427;-76
2021/10/18 15:27:02;;;;;;;19.37;14.97;;;13.40;99.90;;;;;;4956226;28;20409;-76
2021/10/18 15:29:27;;;;;;;22.27;16.23;;;13.40;99.90;;;;;;4956284;29;20188;-76
2021/10/18 15:31:53;;;;;;;22.37;15.50;;;13.30;99.90;;;;;;4955864;28;20463;-76
2021/10/18 15:34:19;;;;;;;29.27;15.77;;;13.30;99.90;;;;;;4955498;28;20236;-76
2021/10/18 15:36:47;;;;;;;22.67;15.20;;;13.20;99.90;;;;;;4956238;29;20196;-76
2021/10/18 15:39:14;;;;;;;21.20;13.43;;;13.10;99.90;;;;;;4955785;29;20200;-76
2021/10/18 15:41:40;;;;;;;23.30;14.33;;;13.10;99.90;;;;;;4955213;28;20439;-75
2021/10/18 15:44:06;;;;;;;23.20;15.50;;;13.00;99.90;;;;;;4955074;29;20889;-76
2021/10/18 15:46:33;;;;;;;22.20;15.73;;;12.90;99.90;;;;;;4955715;28;20476;-76
2021/10/18 15:48:59;;;;;;;24.73;17.60;;;12.90;99.90;;;;;;4955025;28;20463;-77
2021/10/18 15:51:25;;;;;;;23.00;15.93;;;12.80;99.90;;;;;;4953529;28;20500;-76
2021/10/18 15:53:50;;;;;;;28.23;16.70;;;12.70;99.90;;;;;;4955511;28;20221;-75
2021/10/18 15:56:17;;;;;;;23.20;16.20;;;12.60;99.90;;;;;;4954488;29;20177;-75
2021/10/18 15:58:43;;;;;;;23.07;15.80;;;12.50;99.90;;;;;;4954262;28;20606;-75
2021/10/18 16:01:08;;;;;;;19.53;13.17;;;12.40;99.90;;;;;;4953045;28;20479;-75
2021/10/18 16:03:34;;;;;;;21.23;14.53;;;12.40;99.90;;;;;;4954564;29;20272;-75
2021/10/18 16:05:59;;;;;;;20.97;14.07;;;12.30;99.90;;;;;;4954390;29;20181;-75
2021/10/18 16:08:25;;;;;;;22.47;14.70;;;12.20;99.90;;;;;;4952887;29;20223;-75
2021/10/18 16:10:51;;;;;;;19.90;14.00;;;12.10;99.90;;;;;;4954390;28;20213;-75
2021/10/18 16:13:17;;;;;;;19.33;13.53;;;12.00;99.90;;;;;;4954462;29;20643;-74
2021/10/18 16:15:44;;;;;;;16.83;13.17;;;11.80;99.90;;;;;;4953205;29;20181;-75
2021/10/18 16:18:10;;;;;;;17.47;12.70;;;11.70;99.90;;;;;;4952648;29;20436;-76
2021/10/18 16:20:38;;;;;;;20.13;13.10;;;11.60;99.90;;;;;;4953915;28;20809;-75
2021/10/18 16:23:03;;;;;;;14.40;10.73;;;11.40;99.90;;;;;;4954207;28;20184;-75
2021/10/18 16:25:29;;;;;;;18.00;11.80;;;11.40;99.90;;;;;;4953951;29;20421;-75
2021/10/18 16:27:55;;;;;;;14.83;9.77;;;11.30;99.90;;;;;;4953877;28;20193;-75
2021/10/18 16:30:21;;;;;;;9.87;8.80;;;11.20;99.90;;;;;;4953618;28;20267;-75
2021/10/18 16:32:47;;;;;;;16.90;10.57;;;11.00;99.90;;;;;;4954045;29;20932;-75
2021/10/18 16:35:12;;;;;;;15.97;10.30;;;10.90;99.90;;;;;;4953948;29;20164;-75
2021/10/18 16:37:39;;;;;;;17.67;10.17;;;10.70;99.90;;;;;;4953790;29;20177;-75
2021/10/18 16:40:06;;;;;;;23.80;12.33;;;10.60;99.90;;;;;;4953725;28;20551;-75
2021/10/18 16:42:31;;;;;;;17.20;11.30;;;10.50;99.90;;;;;;4953689;28;20442;-75
2021/10/18 16:44:57;;;;;;;15.90;11.60;;;10.50;99.90;;;;;;4952458;29;20515;-75
2021/10/18 16:47:23;;;;;;;13.43;11.20;;;10.40;99.90;;;;;;4953705;28;20680;-75
2021/10/18 16:49:48;;;;;;;17.77;11.77;;;10.30;99.90;;;;;;4953537;29;20201;-75
2021/10/18 16:52:14;;;;;;;15.63;11.17;;;10.20;99.90;;;;;;4953621;28;20576;-77
2021/10/18 16:54:39;;;;;;;25.77;12.10;;;10.20;99.90;;;;;;4953636;29;20649;-77
2021/10/18 16:57:06;;;;;;;13.90;11.00;;;10.10;99.90;;;;;;4953731;29;20180;-77
2021/10/18 16:59:32;;;;;;;16.53;9.93;;;10.00;99.90;;;;;;4952275;29;20195;-77
2021/10/18 17:01:57;;;;;;;14.80;10.00;;;9.80;99.90;;;;;;4953821;28;20458;-77
2021/10/18 17:04:23;;;;;;;18.47;11.43;;;9.80;99.90;;;;;;4953979;29;20510;-79
2021/10/18 17:06:49;;;;;;;18.67;12.60;;;9.70;99.90;;;;;;4957115;28;20544;-77
2021/10/18 17:09:19;;;;;;;14.77;10.33;;;9.60;99.90;;;;;;4954512;28;20661;-77
2021/10/18 17:11:45;;;;;;;16.40;11.00;;;9.50;99.90;;;;;;4957434;28;20203;-77
2021/10/18 17:14:11;;;;;;;15.43;11.80;;;9.50;99.90;;;;;;4956879;29;20493;-77
2021/10/18 17:16:37;;;;;;;14.20;10.50;;;9.40;99.90;;;;;;4957446;29;20450;-77
2021/10/18 17:19:06;;;;;;;16.57;12.53;;;9.30;99.90;;;;;;4957336;29;20263;-77
2021/10/18 17:21:33;;;;;;;16.30;11.63;;;9.30;99.90;;;;;;4957116;28;20590;-77
2021/10/18 17:23:59;;;;;;;24.77;11.90;;;9.30;99.90;;;;;;4957262;28;20842;-77
2021/10/18 17:26:25;;;;;;;17.50;12.10;;;9.20;99.90;;;;;;4955882;29;20521;-77
2021/10/18 17:28:51;;;;;;;17.20;11.33;;;9.20;99.90;;;;;;4957377;28;20497;-77
2021/10/18 17:31:18;;;;;;;31.90;12.03;;;9.10;99.90;;;;;;4957014;28;20232;-77
2021/10/18 17:33:44;;;;;;;17.63;12.50;;;9.10;99.90;;;;;;4955913;29;20415;-77
2021/10/18 17:36:09;;;;;;;23.50;12.10;;;9.00;99.90;;;;;;4956986;29;20461;-77
2021/10/18 17:38:37;;;;;;;18.30;12.53;;;9.00;99.90;;;;;;4956966;29;20178;-77
2021/10/18 17:41:04;;;;;;;16.30;12.17;;;9.00;99.90;;;;;;4956967;28;20204;-77
2021/10/18 17:43:32;;;;;;;17.93;12.50;;;8.90;99.90;;;;;;4956895;28;20954;-77
2021/10/18 17:45:58;;;;;;;16.67;11.20;;;8.90;99.90;;;;;;4957015;28;20428;-77
2021/10/18 17:48:26;;;;;;;18.50;13.07;;;8.90;99.90;;;;;;4956792;28;20427;-77
2021/10/18 17:50:52;;;;;;;20.03;12.63;;;8.90;99.90;;;;;;4957015;28;21038;-77
2021/10/18 17:53:17;;;;;;;19.00;13.07;;;8.80;99.90;;;;;;4956947;29;20428;-77
2021/10/18 17:55:44;;;;;;;18.03;12.60;;;8.80;99.90;;;;;;4956822;29;20198;-77
2021/10/18 17:58:09;;;;;;;17.70;11.27;;;8.70;99.90;;;;;;4956733;28;20180;-77
2021/10/18 18:00:35;;;;;;;18.10;13.10;;;8.70;99.90;;;;;;4956550;28;20439;-77
2021/10/18 18:03:01;;;;;;;22.10;13.60;;;8.70;99.90;;;;;;4956715;29;20188;-77
2021/10/18 18:05:27;;;;;;;19.10;13.37;;;8.70;99.90;;;;;;4956495;28;20197;-77
2021/10/18 18:07:52;;;;;;;22.53;16.53;;;8.70;99.90;;;;;;4956780;29;20923;-77
2021/10/18 18:10:19;;;;;;;19.20;15.43;;;8.70;99.90;;;;;;4956573;29;20202;-78
2021/10/18 18:12:46;;;;;;;19.80;14.87;;;8.60;99.90;;;;;;4956574;28;20175;-77